createdAt,value
2023-04-07T00:00:19.547Z,0.00
2023-04-07T00:01:19.544Z,0.00
2023-04-07T00:02:19.769Z,0.00
2023-04-07T00:03:19.699Z,0.00
2023-04-07T00:04:19.653Z,0.00
2023-04-07T00:05:19.533Z,0.00
2023-04-07T00:06:19.536Z,0.00
2023-04-07T00:07:19.518Z,0.00
2023-04-07T00:08:19.515Z,0.00
2023-04-07T00:09:19.575Z,0.00
2023-04-07T00:10:19.501Z,0.00
2023-04-07T00:11:19.493Z,0.00
2023-04-07T00:12:19.489Z,0.00
2023-04-07T00:13:19.482Z,0.00
2023-04-07T00:14:19.487Z,0.00
2023-04-07T00:15:19.473Z,0.00
2023-04-07T00:16:19.604Z,0.00
2023-04-07T00:17:19.465Z,0.00
2023-04-07T00:18:19.460Z,0.00
2023-04-07T00:19:19.453Z,0.00
2023-04-07T00:20:19.449Z,0.00
2023-04-07T00:21:19.453Z,0.00
2023-04-07T00:22:19.442Z,0.00
2023-04-07T00:23:19.435Z,0.00
2023-04-07T00:24:30.930Z,0.00
2023-04-07T00:25:19.446Z,0.00
2023-04-07T00:26:19.420Z,0.00
2023-04-07T00:27:19.423Z,0.00
2023-04-07T00:28:19.419Z,0.00
2023-04-07T00:29:19.406Z,0.00
2023-04-07T00:30:19.400Z,0.00
2023-04-07T00:31:19.405Z,0.00
2023-04-07T00:32:19.390Z,0.00
2023-04-07T00:33:19.417Z,0.00
2023-04-07T00:34:19.383Z,0.00
2023-04-07T00:35:19.383Z,0.00
2023-04-07T00:36:19.372Z,0.00
2023-04-07T00:37:19.408Z,0.00
2023-04-07T00:38:19.370Z,0.00
2023-04-07T00:39:19.357Z,0.00
2023-04-07T00:40:19.351Z,0.00
2023-04-07T00:41:19.364Z,0.00
2023-04-07T00:42:19.340Z,0.00
2023-04-07T00:43:19.338Z,0.00
2023-04-07T00:44:19.332Z,0.00
2023-04-07T00:45:19.322Z,0.00
2023-04-07T00:46:19.547Z,0.00
2023-04-07T00:47:19.316Z,0.00
2023-04-07T00:48:19.311Z,0.00
2023-04-07T00:49:19.306Z,0.00
2023-04-07T00:50:19.304Z,0.00
2023-04-07T00:51:19.294Z,0.00
2023-04-07T00:52:19.288Z,0.00
2023-04-07T00:53:19.287Z,0.00
2023-04-07T00:54:19.282Z,0.00
2023-04-07T00:55:19.311Z,0.00
2023-04-07T00:56:19.288Z,0.00
2023-04-07T00:57:19.342Z,0.00
2023-04-07T00:58:19.305Z,0.00
2023-04-07T00:59:19.337Z,0.00
2023-04-07T01:00:19.354Z,0.00
2023-04-07T01:01:19.333Z,0.00
2023-04-07T01:02:19.324Z,0.00
2023-04-07T01:03:19.543Z,0.00
2023-04-07T01:04:19.567Z,0.00
2023-04-07T01:05:19.338Z,0.00
2023-04-07T01:06:19.222Z,0.00
2023-04-07T01:07:19.220Z,0.00
2023-04-07T01:08:19.233Z,0.00
2023-04-07T01:09:19.209Z,0.00
2023-04-07T01:10:19.201Z,0.00
2023-04-07T01:11:19.194Z,0.00
2023-04-07T01:12:19.193Z,0.00
2023-04-07T01:13:19.214Z,0.00
2023-04-07T01:14:19.182Z,0.00
2023-04-07T01:15:19.174Z,0.00
2023-04-07T01:16:19.176Z,0.00
2023-04-07T01:17:19.175Z,0.00
2023-04-07T01:18:19.172Z,0.00
2023-04-07T01:19:19.159Z,0.00
2023-04-07T01:20:19.160Z,0.00
2023-04-07T01:21:19.148Z,0.00
2023-04-07T01:22:19.144Z,0.00
2023-04-07T01:23:19.137Z,0.00
2023-04-07T01:24:19.136Z,0.00
2023-04-07T01:25:19.159Z,0.00
2023-04-07T01:26:19.145Z,0.00
2023-04-07T01:27:19.116Z,0.00
2023-04-07T01:28:19.117Z,0.00
2023-04-07T01:29:19.135Z,0.00
2023-04-07T01:30:19.109Z,0.00
2023-04-07T01:31:19.101Z,0.00
2023-04-07T01:32:19.097Z,0.00
2023-04-07T01:33:19.086Z,0.00
2023-04-07T01:34:19.087Z,0.00
2023-04-07T01:35:19.077Z,0.00
2023-04-07T01:36:19.074Z,0.00
2023-04-07T01:37:19.122Z,0.00
2023-04-07T01:38:19.093Z,0.00
2023-04-07T01:39:19.060Z,0.00
2023-04-07T01:40:19.057Z,0.00
2023-04-07T01:41:19.052Z,0.00
2023-04-07T01:42:19.048Z,0.00
2023-04-07T01:43:19.050Z,0.00
2023-04-07T01:44:19.042Z,0.00
2023-04-07T01:45:19.058Z,0.00
2023-04-07T01:46:19.033Z,0.00
2023-04-07T01:47:19.595Z,0.00
2023-04-07T01:48:19.027Z,0.00
2023-04-07T01:49:19.023Z,0.00
2023-04-07T01:50:19.013Z,0.00
2023-04-07T01:51:19.059Z,0.00
2023-04-07T01:52:19.002Z,0.00
2023-04-07T01:53:19.007Z,0.00
2023-04-07T01:54:19.019Z,0.00
2023-04-07T01:55:18.988Z,0.00
2023-04-07T01:56:19.024Z,0.00
2023-04-07T01:57:18.977Z,0.00
2023-04-07T01:58:18.977Z,0.00
2023-04-07T01:59:18.967Z,0.00
2023-04-07T02:00:18.965Z,0.00
2023-04-07T02:01:19.042Z,0.00
2023-04-07T02:02:19.030Z,0.00
2023-04-07T02:03:19.119Z,0.00
2023-04-07T02:04:18.953Z,0.00
2023-04-07T02:05:18.942Z,0.00
2023-04-07T02:06:18.936Z,0.00
2023-04-07T02:07:18.931Z,0.00
2023-04-07T02:08:18.925Z,0.00
2023-04-07T02:09:18.924Z,0.00
2023-04-07T02:10:18.916Z,0.00
2023-04-07T02:11:18.914Z,0.00
2023-04-07T02:12:18.911Z,0.00
2023-04-07T02:13:18.924Z,0.00
2023-04-07T02:14:18.908Z,0.00
2023-04-07T02:15:18.913Z,0.00
2023-04-07T02:16:18.946Z,0.00
2023-04-07T02:17:18.944Z,0.00
2023-04-07T02:18:18.883Z,0.00
2023-04-07T02:19:18.880Z,0.00
2023-04-07T02:20:18.872Z,0.00
2023-04-07T02:21:18.863Z,0.00
2023-04-07T02:22:18.859Z,0.00
2023-04-07T02:23:18.853Z,0.00
2023-04-07T02:24:18.850Z,0.00
2023-04-07T02:25:18.845Z,0.00
2023-04-07T02:26:18.858Z,0.00
2023-04-07T02:27:18.848Z,0.00
2023-04-07T02:28:18.836Z,0.00
2023-04-07T02:29:18.826Z,0.00
2023-04-07T02:30:18.821Z,0.00
2023-04-07T02:31:18.862Z,0.00
2023-04-07T02:32:18.812Z,0.00
2023-04-07T02:33:18.829Z,0.00
2023-04-07T02:34:18.803Z,0.00
2023-04-07T02:35:18.801Z,0.00
2023-04-07T02:36:18.800Z,0.00
2023-04-07T02:37:18.786Z,0.00
2023-04-07T02:38:18.808Z,0.00
2023-04-07T02:39:18.792Z,0.00
2023-04-07T02:40:18.776Z,0.00
2023-04-07T02:41:18.770Z,0.00
2023-04-07T02:42:18.767Z,0.00
2023-04-07T02:43:18.859Z,0.00
2023-04-07T02:44:18.756Z,0.00
2023-04-07T02:45:18.754Z,0.00
2023-04-07T02:46:18.777Z,0.00
2023-04-07T02:47:18.757Z,0.00
2023-04-07T02:48:18.737Z,0.00
2023-04-07T02:49:18.756Z,0.00
2023-04-07T02:50:18.732Z,0.00
2023-04-07T02:51:18.727Z,0.00
2023-04-07T02:52:18.714Z,0.00
2023-04-07T02:53:18.713Z,0.00
2023-04-07T02:54:18.710Z,0.00
2023-04-07T02:55:18.701Z,0.00
2023-04-07T02:56:18.695Z,0.00
2023-04-07T02:57:18.689Z,0.00
2023-04-07T02:58:18.693Z,0.00
2023-04-07T02:59:18.688Z,0.00
2023-04-07T03:00:18.678Z,0.00
2023-04-07T03:01:18.736Z,0.00
2023-04-07T03:02:18.759Z,0.00
2023-04-07T03:03:18.781Z,0.00
2023-04-07T03:04:18.840Z,0.00
2023-04-07T03:05:18.676Z,0.00
2023-04-07T03:06:18.651Z,0.00
2023-04-07T03:07:18.643Z,0.00
2023-04-07T03:08:18.652Z,0.00
2023-04-07T03:09:18.634Z,0.00
2023-04-07T03:10:18.652Z,0.00
2023-04-07T03:11:18.623Z,0.00
2023-04-07T03:12:18.619Z,0.00
2023-04-07T03:13:18.619Z,0.00
2023-04-07T03:14:18.612Z,0.00
2023-04-07T03:15:18.969Z,0.00
2023-04-07T03:16:18.638Z,0.00
2023-04-07T03:17:18.740Z,0.00
2023-04-07T03:18:18.593Z,0.00
2023-04-07T03:19:18.586Z,0.00
2023-04-07T03:20:18.582Z,0.00
2023-04-07T03:21:18.606Z,0.00
2023-04-07T03:22:18.579Z,0.00
2023-04-07T03:23:18.570Z,0.00
2023-04-07T03:24:18.596Z,0.00
2023-04-07T03:25:18.557Z,0.00
2023-04-07T03:26:18.560Z,0.00
2023-04-07T03:27:18.547Z,0.00
2023-04-07T03:28:18.548Z,0.00
2023-04-07T03:29:18.547Z,0.00
2023-04-07T03:30:18.542Z,0.00
2023-04-07T03:31:18.617Z,0.00
2023-04-07T03:32:18.538Z,0.00
2023-04-07T03:33:18.535Z,0.00
2023-04-07T03:34:18.534Z,0.00
2023-04-07T03:35:18.523Z,0.00
2023-04-07T03:36:18.539Z,0.00
2023-04-07T03:37:18.556Z,0.00
2023-04-07T03:38:18.527Z,0.00
2023-04-07T03:39:18.492Z,0.00
2023-04-07T03:40:18.490Z,0.00
2023-04-07T03:41:18.480Z,0.00
2023-04-07T03:42:18.481Z,0.00
2023-04-07T03:43:18.473Z,0.00
2023-04-07T03:44:18.468Z,0.00
2023-04-07T03:45:18.485Z,0.00
2023-04-07T03:46:18.487Z,0.00
2023-04-07T03:47:18.457Z,0.00
2023-04-07T03:48:18.470Z,0.00
2023-04-07T03:49:18.442Z,0.00
2023-04-07T03:50:18.438Z,0.00
2023-04-07T03:51:18.431Z,0.00
2023-04-07T03:52:18.435Z,0.00
2023-04-07T03:53:18.445Z,0.00
2023-04-07T03:54:18.422Z,0.00
2023-04-07T03:55:18.412Z,0.00
2023-04-07T03:56:18.415Z,0.00
2023-04-07T03:57:18.413Z,0.00
2023-04-07T03:58:18.449Z,0.00
2023-04-07T03:59:18.404Z,0.00
2023-04-07T04:00:18.411Z,0.00
2023-04-07T04:01:18.397Z,0.00
2023-04-07T04:02:18.516Z,0.00
2023-04-07T04:03:18.617Z,0.00
2023-04-07T04:04:18.429Z,0.00
2023-04-07T04:05:18.361Z,0.00
2023-04-07T04:06:18.358Z,0.00
2023-04-07T04:07:18.354Z,0.00
2023-04-07T04:08:18.353Z,0.00
2023-04-07T04:09:18.364Z,0.00
2023-04-07T04:10:18.336Z,0.00
2023-04-07T04:11:18.342Z,0.00
2023-04-07T04:12:18.328Z,0.00
2023-04-07T04:13:18.327Z,0.00
2023-04-07T04:14:18.318Z,0.00
2023-04-07T04:15:18.318Z,0.00
2023-04-07T04:16:18.340Z,0.00
2023-04-07T04:17:18.306Z,0.00
2023-04-07T04:18:18.297Z,0.00
2023-04-07T04:19:18.293Z,0.00
2023-04-07T04:20:18.287Z,0.00
2023-04-07T04:21:18.288Z,0.00
2023-04-07T04:22:18.281Z,0.00
2023-04-07T04:23:18.277Z,0.00
2023-04-07T04:24:18.274Z,0.00
2023-04-07T04:25:18.280Z,0.00
2023-04-07T04:26:18.255Z,0.00
2023-04-07T04:27:18.253Z,0.00
2023-04-07T04:28:18.247Z,0.00
2023-04-07T04:29:18.244Z,0.00
2023-04-07T04:30:18.251Z,0.00
2023-04-07T04:31:18.296Z,0.00
2023-04-07T04:32:18.236Z,0.00
2023-04-07T04:33:18.222Z,0.00
2023-04-07T04:34:18.217Z,0.00
2023-04-07T04:35:18.224Z,0.00
2023-04-07T04:36:18.243Z,0.00
2023-04-07T04:37:18.201Z,0.00
2023-04-07T04:38:18.195Z,0.00
2023-04-07T04:39:18.191Z,0.00
2023-04-07T04:40:18.184Z,0.00
2023-04-07T04:41:18.206Z,0.00
2023-04-07T04:42:18.175Z,0.00
2023-04-07T04:43:18.171Z,0.00
2023-04-07T04:44:18.178Z,0.00
2023-04-07T04:45:18.160Z,0.00
2023-04-07T04:46:18.157Z,0.00
2023-04-07T04:47:18.249Z,0.00
2023-04-07T04:48:18.147Z,0.00
2023-04-07T04:49:18.142Z,0.00
2023-04-07T04:50:18.148Z,0.00
2023-04-07T04:51:18.130Z,0.00
2023-04-07T04:52:18.390Z,0.00
2023-04-07T04:53:18.125Z,0.00
2023-04-07T04:54:18.117Z,0.00
2023-04-07T04:55:18.145Z,0.00
2023-04-07T04:56:18.105Z,0.00
2023-04-07T04:57:18.122Z,0.00
2023-04-07T04:58:18.094Z,0.00
2023-04-07T04:59:18.091Z,4.00
2023-04-07T05:00:18.083Z,4.00
2023-04-07T05:01:18.134Z,0.00
2023-04-07T05:02:18.171Z,0.00
2023-04-07T05:03:18.297Z,4.00
2023-04-07T05:04:18.250Z,4.00
2023-04-07T05:05:18.087Z,4.00
2023-04-07T05:06:18.061Z,4.00
2023-04-07T05:07:18.083Z,4.00
2023-04-07T05:08:18.044Z,4.00
2023-04-07T05:09:18.043Z,4.00
2023-04-07T05:10:18.036Z,4.00
2023-04-07T05:11:18.031Z,4.00
2023-04-07T05:12:18.028Z,4.00
2023-04-07T05:13:18.045Z,4.00
2023-04-07T05:14:18.011Z,4.00
2023-04-07T05:15:18.006Z,4.00
2023-04-07T05:16:18.073Z,4.00
2023-04-07T05:17:18.004Z,4.00
2023-04-07T05:18:17.994Z,8.00
2023-04-07T05:19:18.004Z,8.00
2023-04-07T05:20:17.979Z,4.00
2023-04-07T05:21:17.982Z,8.00
2023-04-07T05:22:17.996Z,8.00
2023-04-07T05:23:17.966Z,8.00
2023-04-07T05:24:17.960Z,8.00
2023-04-07T05:25:17.972Z,8.00
2023-04-07T05:26:17.952Z,8.00
2023-04-07T05:27:17.948Z,8.00
2023-04-07T05:28:17.938Z,12.00
2023-04-07T05:29:17.956Z,12.00
2023-04-07T05:30:17.933Z,12.00
2023-04-07T05:31:17.994Z,12.00
2023-04-07T05:32:17.919Z,12.00
2023-04-07T05:33:17.916Z,12.00
2023-04-07T05:34:17.914Z,12.00
2023-04-07T05:35:17.910Z,16.00
2023-04-07T05:36:17.907Z,16.00
2023-04-07T05:37:17.898Z,12.00
2023-04-07T05:38:17.907Z,20.00
2023-04-07T05:39:17.891Z,16.00
2023-04-07T05:40:17.888Z,20.00
2023-04-07T05:41:17.884Z,16.00
2023-04-07T05:42:17.878Z,16.00
2023-04-07T05:43:17.868Z,16.00
2023-04-07T05:44:17.858Z,20.00
2023-04-07T05:45:17.882Z,16.00
2023-04-07T05:46:17.882Z,16.00
2023-04-07T05:47:17.842Z,20.00
2023-04-07T05:48:17.836Z,20.00
2023-04-07T05:49:20.009Z,20.00
2023-04-07T05:50:17.829Z,20.00
2023-04-07T05:51:17.826Z,20.00
2023-04-07T05:52:17.826Z,20.00
2023-04-07T05:53:17.847Z,20.00
2023-04-07T05:54:17.811Z,20.00
2023-04-07T05:55:17.807Z,20.00
2023-04-07T05:56:17.801Z,20.00
2023-04-07T05:57:17.793Z,20.00
2023-04-07T05:58:17.785Z,24.00
2023-04-07T05:59:17.797Z,28.00
2023-04-07T06:00:17.778Z,28.00
2023-04-07T06:01:17.789Z,28.00
2023-04-07T06:02:17.928Z,28.00
2023-04-07T06:03:17.804Z,28.00
2023-04-07T06:04:17.758Z,32.00
2023-04-07T06:05:17.801Z,36.00
2023-04-07T06:06:17.745Z,36.00
2023-04-07T06:07:17.749Z,44.00
2023-04-07T06:08:17.732Z,44.00
2023-04-07T06:09:17.738Z,44.00
2023-04-07T06:10:17.725Z,44.00
2023-04-07T06:11:17.733Z,48.00
2023-04-07T06:12:17.711Z,44.00
2023-04-07T06:13:17.707Z,44.00
2023-04-07T06:14:17.702Z,44.00
2023-04-07T06:15:17.703Z,48.00
2023-04-07T06:16:19.418Z,52.00
2023-04-07T06:17:17.716Z,48.00
2023-04-07T06:18:17.681Z,52.00
2023-04-07T06:19:17.684Z,52.00
2023-04-07T06:20:17.670Z,52.00
2023-04-07T06:21:17.667Z,56.00
2023-04-07T06:22:17.661Z,60.00
2023-04-07T06:23:17.656Z,68.00
2023-04-07T06:24:17.654Z,76.00
2023-04-07T06:25:17.652Z,72.00
2023-04-07T06:26:17.651Z,64.00
2023-04-07T06:27:17.641Z,68.00
2023-04-07T06:28:17.629Z,76.00
2023-04-07T06:29:17.630Z,72.00
2023-04-07T06:30:17.627Z,72.00
2023-04-07T06:31:17.663Z,72.00
2023-04-07T06:32:17.618Z,80.00
2023-04-07T06:33:17.630Z,80.00
2023-04-07T06:34:17.597Z,80.00
2023-04-07T06:35:17.592Z,80.00
2023-04-07T06:36:17.591Z,76.00
2023-04-07T06:37:17.632Z,80.00
2023-04-07T06:38:17.577Z,80.00
2023-04-07T06:39:17.575Z,76.00
2023-04-07T06:40:17.565Z,72.00
2023-04-07T06:41:17.565Z,68.00
2023-04-07T06:42:17.563Z,68.00
2023-04-07T06:43:17.571Z,72.00
2023-04-07T06:44:17.581Z,76.00
2023-04-07T06:45:17.563Z,80.00
2023-04-07T06:46:17.626Z,72.00
2023-04-07T06:47:17.532Z,76.00
2023-04-07T06:48:17.524Z,76.00
2023-04-07T06:49:17.562Z,76.00
2023-04-07T06:50:17.518Z,80.00
2023-04-07T06:51:17.509Z,72.00
2023-04-07T06:52:17.512Z,68.00
2023-04-07T06:53:17.500Z,68.00
2023-04-07T06:54:17.494Z,68.00
2023-04-07T06:55:17.492Z,72.00
2023-04-07T06:56:17.492Z,76.00
2023-04-07T06:57:17.691Z,72.00
2023-04-07T06:58:17.484Z,72.00
2023-04-07T06:59:17.470Z,76.00
2023-04-07T07:00:17.469Z,72.00
2023-04-07T07:01:17.488Z,76.00
2023-04-07T07:02:17.693Z,76.00
2023-04-07T07:03:17.586Z,80.00
2023-04-07T07:04:17.515Z,76.00
2023-04-07T07:05:17.462Z,76.00
2023-04-07T07:06:17.436Z,80.00
2023-04-07T07:07:17.428Z,76.00
2023-04-07T07:08:17.422Z,80.00
2023-04-07T07:09:17.421Z,84.00
2023-04-07T07:10:17.424Z,84.00
2023-04-07T07:11:17.412Z,80.00
2023-04-07T07:12:17.413Z,80.00
2023-04-07T07:13:17.397Z,80.00
2023-04-07T07:14:17.390Z,80.00
2023-04-07T07:15:17.386Z,84.00
2023-04-07T07:16:17.416Z,88.00
2023-04-07T07:17:17.378Z,92.00
2023-04-07T07:18:17.373Z,92.00
2023-04-07T07:19:17.375Z,92.00
2023-04-07T07:20:17.363Z,96.00
2023-04-07T07:21:17.377Z,88.00
2023-04-07T07:22:17.351Z,88.00
2023-04-07T07:23:17.350Z,88.00
2023-04-07T07:24:17.343Z,96.00
2023-04-07T07:25:17.345Z,100.00
2023-04-07T07:26:17.329Z,116.00
2023-04-07T07:27:17.328Z,120.00
2023-04-07T07:28:17.333Z,132.00
2023-04-07T07:29:17.318Z,136.00
2023-04-07T07:30:17.309Z,128.00
2023-04-07T07:31:17.355Z,124.00
2023-04-07T07:32:17.298Z,108.00
2023-04-07T07:33:17.293Z,116.00
2023-04-07T07:34:17.286Z,112.00
2023-04-07T07:35:17.305Z,112.00
2023-04-07T07:36:17.313Z,124.00
2023-04-07T07:37:17.304Z,116.00
2023-04-07T07:38:17.275Z,124.00
2023-04-07T07:39:17.264Z,124.00
2023-04-07T07:40:17.257Z,128.00
2023-04-07T07:42:17.245Z,132.00
2023-04-07T07:43:17.247Z,120.00
2023-04-07T07:44:17.237Z,120.00
2023-04-07T07:45:17.232Z,132.00
2023-04-07T07:46:17.285Z,152.00
2023-04-07T07:47:17.240Z,148.00
2023-04-07T07:48:17.215Z,140.00
2023-04-07T07:49:17.213Z,132.00
2023-04-07T07:50:17.206Z,128.00
2023-04-07T07:51:17.206Z,132.00
2023-04-07T07:52:17.199Z,132.00
2023-04-07T07:53:17.212Z,124.00
2023-04-07T07:54:17.189Z,116.00
2023-04-07T07:55:17.185Z,112.00
2023-04-07T07:56:17.178Z,104.00
2023-04-07T07:57:17.621Z,100.00
2023-04-07T07:58:17.170Z,108.00
2023-04-07T07:59:17.889Z,104.00
2023-04-07T08:00:17.159Z,100.00
2023-04-07T08:01:17.152Z,104.00
2023-04-07T08:02:17.237Z,104.00
2023-04-07T08:03:17.231Z,116.00
2023-04-07T08:04:17.219Z,116.00
2023-04-07T08:05:17.132Z,132.00
2023-04-07T08:06:17.135Z,140.00
2023-04-07T08:07:17.120Z,136.00
2023-04-07T08:08:17.124Z,140.00
2023-04-07T08:09:17.131Z,140.00
2023-04-07T08:10:17.105Z,136.00
2023-04-07T08:11:17.117Z,148.00
2023-04-07T08:12:17.117Z,160.00
2023-04-07T08:13:17.106Z,164.00
2023-04-07T08:14:17.092Z,156.00
2023-04-07T08:15:17.100Z,168.00
2023-04-07T08:16:17.213Z,172.00
2023-04-07T08:17:17.071Z,168.00
2023-04-07T08:18:17.067Z,176.00
2023-04-07T08:19:17.066Z,180.00
2023-04-07T08:20:17.063Z,204.00
2023-04-07T08:21:17.055Z,196.00
2023-04-07T08:22:17.047Z,204.00
2023-04-07T08:23:17.057Z,248.00
2023-04-07T08:24:17.039Z,220.00
2023-04-07T08:25:17.051Z,264.00
2023-04-07T08:26:17.028Z,244.00
2023-04-07T08:27:17.019Z,240.00
2023-04-07T08:28:17.018Z,268.00
2023-04-07T08:29:17.008Z,288.00
2023-04-07T08:30:17.022Z,276.00
2023-04-07T08:31:17.064Z,264.00
2023-04-07T08:32:17.000Z,232.00
2023-04-07T08:33:16.990Z,156.00
2023-04-07T08:34:16.998Z,156.00
2023-04-07T08:35:16.980Z,156.00
2023-04-07T08:36:17.010Z,176.00
2023-04-07T08:37:16.971Z,188.00
2023-04-07T08:38:16.969Z,188.00
2023-04-07T08:39:16.961Z,176.00
2023-04-07T08:40:16.958Z,152.00
2023-04-07T08:41:16.973Z,152.00
2023-04-07T08:42:16.960Z,140.00
2023-04-07T08:43:16.940Z,144.00
2023-04-07T08:44:16.942Z,140.00
2023-04-07T08:45:16.933Z,136.00
2023-04-07T08:46:16.955Z,144.00
2023-04-07T08:47:16.933Z,136.00
2023-04-07T08:48:16.918Z,132.00
2023-04-07T08:49:16.931Z,164.00
2023-04-07T08:50:16.915Z,164.00
2023-04-07T08:51:16.898Z,160.00
2023-04-07T08:52:16.902Z,172.00
2023-04-07T08:53:16.895Z,168.00
2023-04-07T08:54:16.887Z,168.00
2023-04-07T08:55:16.881Z,168.00
2023-04-07T08:56:16.897Z,164.00
2023-04-07T08:57:16.901Z,164.00
2023-04-07T08:58:16.879Z,160.00
2023-04-07T08:59:16.865Z,180.00
2023-04-07T09:00:16.864Z,192.00
2023-04-07T09:01:17.159Z,192.00
2023-04-07T09:02:16.861Z,200.00
2023-04-07T09:03:17.037Z,208.00
2023-04-07T09:04:16.894Z,216.00
2023-04-07T09:05:16.881Z,232.00
2023-04-07T09:06:16.831Z,228.00
2023-04-07T09:07:16.821Z,244.00
2023-04-07T09:08:16.817Z,256.00
2023-04-07T09:09:16.809Z,232.00
2023-04-07T09:10:16.807Z,220.00
2023-04-07T09:11:16.800Z,236.00
2023-04-07T09:12:16.797Z,244.00
2023-04-07T09:13:16.824Z,240.00
2023-04-07T09:14:16.788Z,224.00
2023-04-07T09:15:16.781Z,212.00
2023-04-07T09:16:16.788Z,200.00
2023-04-07T09:17:16.771Z,200.00
2023-04-07T09:18:16.917Z,204.00
2023-04-07T09:19:16.769Z,220.00
2023-04-07T09:20:16.764Z,228.00
2023-04-07T09:21:16.750Z,220.00
2023-04-07T09:22:16.753Z,224.00
2023-04-07T09:23:16.741Z,220.00
2023-04-07T09:24:16.741Z,208.00
2023-04-07T09:25:16.740Z,192.00
2023-04-07T09:26:16.726Z,196.00
2023-04-07T09:27:17.385Z,200.00
2023-04-07T09:28:16.716Z,200.00
2023-04-07T09:29:16.730Z,200.00
2023-04-07T09:30:16.715Z,204.00
2023-04-07T09:31:16.698Z,192.00
2023-04-07T09:32:16.712Z,200.00
2023-04-07T09:33:16.691Z,184.00
2023-04-07T09:34:16.690Z,168.00
2023-04-07T09:35:16.694Z,184.00
2023-04-07T09:36:16.769Z,204.00
2023-04-07T09:37:16.673Z,216.00
2023-04-07T09:38:16.670Z,216.00
2023-04-07T09:39:16.665Z,196.00
2023-04-07T09:40:16.659Z,180.00
2023-04-07T09:41:16.758Z,160.00
2023-04-07T09:42:16.654Z,168.00
2023-04-07T09:43:16.665Z,160.00
2023-04-07T09:44:16.649Z,168.00
2023-04-07T09:45:27.364Z,180.00
2023-04-07T09:46:16.682Z,188.00
2023-04-07T09:47:16.631Z,176.00
2023-04-07T09:48:16.619Z,176.00
2023-04-07T09:49:16.612Z,180.00
2023-04-07T09:50:16.632Z,184.00
2023-04-07T09:51:16.621Z,200.00
2023-04-07T09:52:16.607Z,244.00
2023-04-07T09:53:16.594Z,208.00
2023-04-07T09:54:16.595Z,188.00
2023-04-07T09:55:16.589Z,184.00
2023-04-07T09:56:16.583Z,200.00
2023-04-07T09:57:16.575Z,220.00
2023-04-07T09:58:16.641Z,220.00
2023-04-07T09:59:16.568Z,244.00
2023-04-07T10:00:16.564Z,252.00
2023-04-07T10:01:16.677Z,248.00
2023-04-07T10:03:16.606Z,200.00
2023-04-07T10:04:16.629Z,232.00
2023-04-07T10:05:16.560Z,208.00
2023-04-07T10:06:16.645Z,228.00
2023-04-07T10:07:16.531Z,260.00
2023-04-07T10:08:16.527Z,292.00
2023-04-07T10:09:16.525Z,332.00
2023-04-07T10:10:16.532Z,344.00
2023-04-07T10:11:16.521Z,336.00
2023-04-07T10:12:16.518Z,328.00
2023-04-07T10:13:16.525Z,308.00
2023-04-07T10:14:16.552Z,308.00
2023-04-07T10:15:16.502Z,304.00
2023-04-07T10:16:16.552Z,328.00
2023-04-07T10:17:16.504Z,348.00
2023-04-07T10:18:16.475Z,316.00
2023-04-07T10:19:16.492Z,304.00
2023-04-07T10:20:16.466Z,300.00
2023-04-07T10:21:16.476Z,320.00
2023-04-07T10:22:16.458Z,340.00
2023-04-07T10:23:16.450Z,356.00
2023-04-07T10:24:16.449Z,368.00
2023-04-07T10:25:16.523Z,340.00
2023-04-07T10:26:16.437Z,356.00
2023-04-07T10:27:16.442Z,360.00
2023-04-07T10:28:16.433Z,352.00
2023-04-07T10:29:16.427Z,360.00
2023-04-07T10:30:16.428Z,352.00
2023-04-07T10:31:16.450Z,340.00
2023-04-07T10:32:16.415Z,312.00
2023-04-07T10:33:16.427Z,328.00
2023-04-07T10:34:16.400Z,328.00
2023-04-07T10:35:16.401Z,348.00
2023-04-07T10:36:16.390Z,356.00
2023-04-07T10:37:16.383Z,392.00
2023-04-07T10:38:16.522Z,376.00
2023-04-07T10:39:16.373Z,388.00
2023-04-07T10:40:16.369Z,368.00
2023-04-07T10:41:16.363Z,380.00
2023-04-07T10:42:16.360Z,380.00
2023-04-07T10:43:16.355Z,396.00
2023-04-07T10:44:16.353Z,412.00
2023-04-07T10:45:16.348Z,424.00
2023-04-07T10:46:16.368Z,408.00
2023-04-07T10:47:16.351Z,424.00
2023-04-07T10:48:16.331Z,436.00
2023-04-07T10:49:18.565Z,460.00
2023-04-07T10:50:16.323Z,460.00
2023-04-07T10:51:16.320Z,444.00
2023-04-07T10:52:16.312Z,408.00
2023-04-07T10:53:16.333Z,400.00
2023-04-07T10:54:16.309Z,388.00
2023-04-07T10:55:16.301Z,396.00
2023-04-07T10:56:16.293Z,320.00
2023-04-07T10:57:16.293Z,344.00
2023-04-07T10:58:16.288Z,336.00
2023-04-07T10:59:16.353Z,324.00
2023-04-07T11:00:16.301Z,324.00
2023-04-07T11:01:16.368Z,320.00
2023-04-07T11:02:16.716Z,296.00
2023-04-07T11:03:16.427Z,280.00
2023-04-07T11:04:16.349Z,280.00
2023-04-07T11:05:16.269Z,236.00
2023-04-07T11:06:16.269Z,236.00
2023-04-07T11:07:16.238Z,240.00
2023-04-07T11:08:16.236Z,244.00
2023-04-07T11:09:16.227Z,208.00
2023-04-07T11:10:16.306Z,228.00
2023-04-07T11:11:16.218Z,212.00
2023-04-07T11:12:16.214Z,212.00
2023-04-07T11:13:16.208Z,212.00
2023-04-07T11:14:16.213Z,208.00
2023-04-07T11:15:16.200Z,200.00
2023-04-07T11:16:16.233Z,196.00
2023-04-07T11:17:16.192Z,196.00
2023-04-07T11:18:16.194Z,212.00
2023-04-07T11:19:16.200Z,224.00
2023-04-07T11:20:16.230Z,228.00
2023-04-07T11:21:16.190Z,236.00
2023-04-07T11:22:28.549Z,232.00
2023-04-07T11:23:16.160Z,232.00
2023-04-07T11:24:16.159Z,236.00
2023-04-07T11:25:16.151Z,248.00
2023-04-07T11:26:16.185Z,272.00
2023-04-07T11:27:16.143Z,296.00
2023-04-07T11:28:16.146Z,320.00
2023-04-07T11:29:16.133Z,344.00
2023-04-07T11:30:16.154Z,364.00
2023-04-07T11:31:16.228Z,380.00
2023-04-07T11:32:16.122Z,404.00
2023-04-07T11:33:16.112Z,404.00
2023-04-07T11:34:16.110Z,424.00
2023-04-07T11:35:16.106Z,416.00
2023-04-07T11:36:16.170Z,428.00
2023-04-07T11:37:16.121Z,452.00
2023-04-07T11:38:16.096Z,436.00
2023-04-07T11:39:16.084Z,448.00
2023-04-07T11:40:16.083Z,472.00
2023-04-07T11:41:16.072Z,500.00
2023-04-07T11:42:16.072Z,500.00
2023-04-07T11:43:16.071Z,484.00
2023-04-07T11:44:16.068Z,444.00
2023-04-07T11:45:16.056Z,412.00
2023-04-07T11:46:16.119Z,392.00
2023-04-07T11:47:16.047Z,440.00
2023-04-07T11:48:16.044Z,440.00
2023-04-07T11:49:16.035Z,424.00
2023-04-07T11:50:16.109Z,408.00
2023-04-07T11:51:16.027Z,412.00
2023-04-07T11:52:16.025Z,456.00
2023-04-07T11:53:16.053Z,464.00
2023-04-07T11:54:16.016Z,472.00
2023-04-07T11:55:16.010Z,460.00
2023-04-07T11:56:16.007Z,428.00
2023-04-07T11:57:16.000Z,420.00
2023-04-07T11:58:15.997Z,404.00
2023-04-07T11:59:16.009Z,376.00
2023-04-07T12:00:15.987Z,344.00
2023-04-07T12:01:15.995Z,348.00
2023-04-07T12:02:16.088Z,332.00
2023-04-07T12:03:16.350Z,280.00
2023-04-07T12:04:16.198Z,248.00
2023-04-07T12:05:16.093Z,236.00
2023-04-07T12:06:15.960Z,244.00
2023-04-07T12:07:15.954Z,224.00
2023-04-07T12:08:15.951Z,236.00
2023-04-07T12:09:15.965Z,252.00
2023-04-07T12:10:15.942Z,276.00
2023-04-07T12:11:15.937Z,336.00
2023-04-07T12:12:15.933Z,412.00
2023-04-07T12:13:15.939Z,444.00
2023-04-07T12:14:15.923Z,468.00
2023-04-07T12:15:15.914Z,496.00
2023-04-07T12:16:15.973Z,556.00
2023-04-07T12:17:15.911Z,564.00
2023-04-07T12:18:15.909Z,584.00
2023-04-07T12:19:15.897Z,608.00
2023-04-07T12:20:15.895Z,596.00
2023-04-07T12:21:15.895Z,608.00
2023-04-07T12:22:15.892Z,640.00
2023-04-07T12:23:15.880Z,696.00
2023-04-07T12:24:15.874Z,676.00
2023-04-07T12:25:15.901Z,700.00
2023-04-07T12:26:15.864Z,708.00
2023-04-07T12:27:15.856Z,736.00
2023-04-07T12:28:15.864Z,788.00
2023-04-07T12:29:15.846Z,756.00
2023-04-07T12:30:15.843Z,740.00
2023-04-07T12:31:15.836Z,684.00
2023-04-07T12:32:16.005Z,620.00
2023-04-07T12:33:15.833Z,480.00
2023-04-07T12:34:15.824Z,552.00
2023-04-07T12:35:15.820Z,588.00
2023-04-07T12:36:15.816Z,596.00
2023-04-07T12:37:15.811Z,680.00
2023-04-07T12:38:15.805Z,724.00
2023-04-07T12:39:15.808Z,784.00
2023-04-07T12:40:15.794Z,840.00
2023-04-07T12:41:15.819Z,876.00
2023-04-07T12:42:15.789Z,892.00
2023-04-07T12:43:15.785Z,936.00
2023-04-07T12:44:15.787Z,948.00
2023-04-07T12:45:15.772Z,924.00
2023-04-07T12:46:15.788Z,928.00
2023-04-07T12:47:15.765Z,940.00
2023-04-07T12:48:15.761Z,956.00
2023-04-07T12:49:15.753Z,956.00
2023-04-07T12:50:15.753Z,892.00
2023-04-07T12:51:15.755Z,936.00
2023-04-07T12:52:15.739Z,972.00
2023-04-07T12:53:15.749Z,976.00
2023-04-07T12:54:15.732Z,896.00